Kotlas, Russia
Current Conditions -  °F | °C
As of 9:30 AM on Wednesday 22 Oct 2014 (Local Time) from UUYY Reporting Station
Overcast Overcast  
Wind Chill: -17°   Ceiling: 6600
Heat Index:   Visibility: 4mi
Dew Point: -4°   Wind: 13mph
Humidity: 78%   Direction: 20°NNE
Pressure: 29.91"   Gusts: NA
Location:  61.26°N, 46.66°E
Report Text: UUYY 220630Z 02006MPS 7000 SCT012 OVC066 M17/M20 Q1013 NOSIG01CLRD61 RMK QFE750/1000
Loading
Personal Weather Stations






























Interactive Weather Map
Tropical Storm Tracking
New forecast layout! Learn more

10-Day Weather Forecast

Advertisements
Track Severe Weather on mobile